Time;durP1;ratioP1;P1;durP2;ratioP2;P2;SDS_P1;SDS_P2;PMS_P1;PMS_P2;Temp;Humidity;BMP_temperature;BMP_pressure;BME280_temperature;BME280_humidity;BME280_pressure;Samples;Min_cycle;Max_cycle;Signal;HPM_P1;HPM_P2
2023/10/31 00:00:34;;;;;;;9.40;6.57;;;;;;;10.27;100.00;99562.03;5113676;28;20156;-62
2023/10/31 00:02:59;;;;;;;6.15;5.55;;;;;;;10.26;100.00;99568.25;5092998;28;20058;-62
2023/10/31 00:05:25;;;;;;;7.88;5.97;;;;;;;10.24;100.00;99569.22;5092720;28;20654;-61
2023/10/31 00:07:50;;;;;;;8.88;7.97;;;;;;;10.05;100.00;99574.34;5113216;28;20016;-62
2023/10/31 00:10:16;;;;;;;8.57;4.90;;;;;;;10.21;100.00;99569.47;5111665;28;20382;-62
2023/10/31 00:12:41;;;;;;;6.13;5.00;;;;;;;10.22;100.00;99575.63;5112890;28;20031;-61
2023/10/31 00:15:09;;;;;;;6.60;4.70;;;;;;;10.18;100.00;99593.66;5094640;28;20016;-61
2023/10/31 00:17:34;;;;;;;6.35;4.85;;;;;;;10.14;100.00;99589.53;5107769;28;20027;-61
2023/10/31 00:20:00;;;;;;;7.50;4.60;;;;;;;10.16;100.00;99594.75;5112375;28;20486;-62
2023/10/31 00:22:25;;;;;;;7.68;4.60;;;;;;;10.15;100.00;99587.75;5093542;28;20370;-62
2023/10/31 00:24:51;;;;;;;11.45;7.63;;;;;;;10.04;100.00;99593.09;5111229;28;20019;-62
2023/10/31 00:27:16;;;;;;;8.20;6.80;;;;;;;10.07;100.00;99588.34;5096230;28;20482;-61
2023/10/31 00:29:41;;;;;;;7.78;6.75;;;;;;;10.07;100.00;99585.69;5113638;28;20026;-61
2023/10/31 00:32:07;;;;;;;10.90;4.30;;;;;;;10.21;100.00;99585.44;5112737;28;20023;-62
2023/10/31 00:34:32;;;;;;;5.82;4.40;;;;;;;10.20;100.00;99591.69;5112017;28;20027;-61
2023/10/31 00:36:58;;;;;;;10.70;3.85;;;;;;;10.20;100.00;99594.34;5111629;28;20050;-61
2023/10/31 00:39:23;;;;;;;7.65;6.40;;;;;;;10.05;100.00;99592.09;5092190;28;20031;-61
2023/10/31 00:41:51;;;;;;;6.05;3.92;;;;;;;10.17;100.00;99589.28;5092605;28;20048;-62
2023/10/31 00:44:16;;;;;;;5.82;3.47;;;;;;;10.16;100.00;99592.09;5113360;28;20115;-62
2023/10/31 00:46:43;;;;;;;7.93;4.03;;;;;;;10.19;100.00;99605.94;5113037;28;20152;-61
2023/10/31 00:49:08;;;;;;;7.75;5.38;;;;;;;10.10;100.00;99608.53;5094858;28;20031;-61
2023/10/31 00:51:34;;;;;;;6.63;3.50;;;;;;;10.21;100.00;99606.69;5091815;28;20024;-61
2023/10/31 00:53:59;;;;;;;8.40;5.45;;;;;;;10.06;100.00;99605.28;5112745;28;20032;-61
2023/10/31 00:56:25;;;;;;;7.30;6.10;;;;;;;10.07;100.00;99614.09;5094517;28;20024;-61
2023/10/31 00:58:50;;;;;;;3.83;3.45;;;;;;;10.20;100.00;99615.59;5094052;28;20088;-61
2023/10/31 01:01:16;;;;;;;7.82;6.43;;;;;;;10.04;100.00;99607.19;5113513;27;20043;-61
2023/10/31 01:03:42;;;;;;;6.25;3.90;;;;;;;10.17;100.00;99613.19;5075372;28;20020;-61
2023/10/31 01:06:07;;;;;;;11.88;4.82;;;;;;;10.22;100.00;99628.78;5112365;28;20015;-61
2023/10/31 01:08:36;;;;;;;8.90;5.57;;;;;;;10.15;100.00;99616.97;5112436;28;20077;-61
2023/10/31 01:11:02;;;;;;;9.70;5.20;;;;;;;10.18;100.00;99622.88;5094048;28;20032;-61
2023/10/31 01:13:27;;;;;;;10.15;6.70;;;;;;;10.18;100.00;99625.53;5112538;28;20026;-61
2023/10/31 01:15:52;;;;;;;15.27;13.20;;;;;;;10.03;100.00;99629.44;5112418;28;20020;-61
2023/10/31 01:18:18;;;;;;;12.90;8.00;;;;;;;10.14;100.00;99632.03;5111950;28;20027;-61
2023/10/31 01:20:45;;;;;;;16.00;9.10;;;;;;;10.23;100.00;99636.66;5110962;28;20032;-61
2023/10/31 01:23:11;;;;;;;19.70;17.52;;;;;;;10.09;100.00;99633.38;5111449;28;20043;-62
2023/10/31 01:25:36;;;;;;;12.43;8.52;;;;;;;10.18;100.00;99644.13;5091145;28;20058;-61
2023/10/31 01:28:04;;;;;;;24.52;20.17;;;;;;;10.12;100.00;99638.47;5093184;28;20103;-61
2023/10/31 01:30:29;;;;;;;26.08;23.27;;;;;;;10.04;100.00;99632.94;5112234;28;20028;-61
2023/10/31 01:32:55;;;;;;;27.75;24.95;;;;;;;10.00;100.00;99635.00;5090870;28;20084;-61
2023/10/31 01:35:20;;;;;;;24.80;14.45;;;;;;;10.12;100.00;99644.63;5092818;28;20023;-61
2023/10/31 01:37:46;;;;;;;30.63;26.83;;;;;;;10.02;100.00;99633.88;5111701;28;20023;-61
2023/10/31 01:40:14;;;;;;;30.73;15.68;;;;;;;10.09;100.00;99631.59;5091829;28;20034;-61
2023/10/31 01:42:39;;;;;;;33.75;30.45;;;;;;;10.04;100.00;99633.78;5111782;28;20058;-61
2023/10/31 01:45:06;;;;;;;28.33;17.13;;;;;;;10.16;100.00;99640.75;5093051;28;20066;-61
2023/10/31 01:47:32;;;;;;;33.03;16.58;;;;;;;10.13;100.00;99642.81;5111948;28;20386;-62
2023/10/31 01:50:00;;;;;;;29.13;16.35;;;;;;;10.14;100.00;99633.88;5093097;28;20020;-61
2023/10/31 01:52:26;;;;;;;27.83;16.48;;;;;;;10.12;100.00;99635.81;5114121;27;20019;-62
2023/10/31 01:54:52;;;;;;;32.17;16.58;;;;;;;10.11;100.00;99642.09;5093714;28;20050;-61
2023/10/31 01:57:20;;;;;;;28.05;16.30;;;;;;;10.12;100.00;99635.81;5093463;28;20035;-61
2023/10/31 01:59:46;;;;;;;26.88;15.65;;;;;;;10.14;100.00;99636.53;5092471;28;20067;-61
2023/10/31 02:02:11;;;;;;;29.15;16.00;;;;;;;10.14;100.00;99649.81;5108831;28;20043;-62
2023/10/31 02:04:37;;;;;;;30.70;17.65;;;;;;;10.09;100.00;99641.34;5090947;28;20074;-62
2023/10/31 02:07:02;;;;;;;28.38;16.48;;;;;;;10.15;100.00;99649.69;5109924;28;20028;-61
2023/10/31 02:09:29;;;;;;;28.33;17.25;;;;;;;10.04;100.00;99649.72;5109639;28;20102;-61
2023/10/31 02:11:55;;;;;;;29.27;17.23;;;;;;;10.10;100.00;99649.22;5109255;28;20143;-61
2023/10/31 02:14:23;;;;;;;38.38;34.10;;;;;;;9.99;100.00;99641.25;5090680;28;20016;-62
2023/10/31 02:16:49;;;;;;;27.60;17.23;;;;;;;10.09;100.00;99650.19;5110528;28;20477;-61
2023/10/31 02:19:21;;;;;;;30.48;16.70;;;;;;;10.12;100.00;99644.63;5090760;28;20094;-62
2023/10/31 02:21:47;;;;;;;38.65;34.60;;;;;;;10.05;100.00;99642.56;5108897;28;20410;-62
2023/10/31 02:24:15;;;;;;;32.08;18.73;;;;;;;10.11;100.00;99642.91;5110442;28;20031;-61
2023/10/31 02:26:40;;;;;;;27.98;17.30;;;;;;;10.15;100.00;99648.84;5107590;28;20035;-61
2023/10/31 02:29:06;;;;;;;38.17;21.90;;;;;;;10.17;100.00;99650.41;5092045;28;20031;-62
2023/10/31 02:31:32;;;;;;;37.53;33.20;;;;;;;10.05;100.00;99639.91;5090681;28;20095;-61
2023/10/31 02:33:57;;;;;;;29.58;17.15;;;;;;;10.06;100.00;99639.81;5110212;28;20573;-61
2023/10/31 02:36:23;;;;;;;33.22;18.88;;;;;;;10.07;100.00;99635.34;5089521;28;20012;-62
2023/10/31 02:38:48;;;;;;;32.60;19.85;;;;;;;10.02;100.00;99635.69;5091220;28;20031;-62
2023/10/31 02:41:14;;;;;;;35.22;18.67;;;;;;;10.12;100.00;99657.91;5108848;28;20019;-61
2023/10/31 02:43:40;;;;;;;40.10;34.60;;;;;;;9.98;100.00;99643.06;5110318;28;20023;-62
2023/10/31 02:46:06;;;;;;;42.35;37.85;;;;;;;10.06;100.00;99657.53;5109405;28;20662;-62
2023/10/31 02:48:37;;;;;;;30.67;19.40;;;;;;;10.12;100.00;99660.56;5090065;28;20111;-62
2023/10/31 02:51:04;;;;;;;38.13;21.88;;;;;;;10.10;100.00;99659.00;5109930;28;20026;-61
2023/10/31 02:53:29;;;;;;;31.15;17.52;;;;;;;10.09;100.00;99667.91;5109173;28;20039;-61
2023/10/31 02:55:57;;;;;;;40.97;36.50;;;;;;;10.01;100.00;99668.56;5110024;28;20016;-61
2023/10/31 02:58:23;;;;;;;31.70;18.77;;;;;;;10.07;100.00;99662.75;5111136;28;20015;-61
2023/10/31 03:00:48;;;;;;;30.75;19.48;;;;;;;10.08;100.00;99669.72;5090888;28;20078;-61
2023/10/31 03:03:13;;;;;;;40.75;36.58;;;;;;;9.94;100.00;99664.69;5090125;28;20112;-62
2023/10/31 03:05:39;;;;;;;31.10;18.50;;;;;;;10.04;100.00;99670.97;5089125;28;20166;-61
2023/10/31 03:08:04;;;;;;;39.45;35.40;;;;;;;9.94;100.00;99677.94;5110185;28;20055;-62
2023/10/31 03:10:30;;;;;;;37.10;18.88;;;;;;;10.04;100.00;99678.09;5107739;28;20020;-61
2023/10/31 03:12:55;;;;;;;30.60;19.02;;;;;;;9.98;100.00;99672.28;5105776;28;20039;-62
2023/10/31 03:15:21;;;;;;;39.55;35.53;;;;;;;9.97;100.00;99686.56;5110733;28;20031;-61
2023/10/31 03:17:46;;;;;;;30.08;19.10;;;;;;;10.02;100.00;99688.81;5113865;28;20031;-61
2023/10/31 03:20:12;;;;;;;32.92;19.83;;;;;;;10.04;100.00;99694.88;5113453;28;20382;-61
2023/10/31 03:22:37;;;;;;;44.78;40.13;;;;;;;9.93;100.00;99698.38;5113957;28;20015;-62
2023/10/31 03:25:03;;;;;;;36.78;21.88;;;;;;;10.02;100.00;99702.09;5095500;28;20111;-61
2023/10/31 03:27:28;;;;;;;44.00;39.53;;;;;;;9.99;100.00;99710.31;5114658;28;20073;-61
2023/10/31 03:29:54;;;;;;;37.28;19.38;;;;;;;10.03;100.00;99711.78;5114584;28;20019;-61
2023/10/31 03:32:19;;;;;;;29.85;17.08;;;;;;;10.07;100.00;99715.03;5114245;28;20023;-62
2023/10/31 03:34:44;;;;;;;33.20;19.60;;;;;;;10.09;100.00;99721.06;5096301;28;20106;-62
2023/10/31 03:37:10;;;;;;;35.45;20.98;;;;;;;10.06;100.00;99722.16;5114006;28;20033;-61
2023/10/31 03:39:35;;;;;;;37.22;21.25;;;;;;;10.09;100.00;99721.06;5096489;28;20063;-62
2023/10/31 03:42:00;;;;;;;32.58;20.55;;;;;;;10.09;100.00;99724.56;5114264;28;20095;-61
2023/10/31 03:44:26;;;;;;;39.08;20.63;;;;;;;10.11;100.00;99719.13;5114059;28;20028;-61
2023/10/31 03:46:51;;;;;;;35.33;21.65;;;;;;;10.12;100.00;99721.69;5095803;28;20478;-62
2023/10/31 03:49:19;;;;;;;39.30;20.80;;;;;;;10.14;100.00;99735.66;5114466;28;20080;-61
2023/10/31 03:51:44;;;;;;;42.50;23.35;;;;;;;10.17;100.00;99738.06;5114529;27;20028;-62
2023/10/31 03:54:12;;;;;;;37.78;21.17;;;;;;;10.14;100.00;99733.00;5114315;28;20031;-62
2023/10/31 03:56:42;;;;;;;35.70;21.20;;;;;;;10.10;100.00;99739.53;5110050;28;20072;-61
2023/10/31 03:59:07;;;;;;;;;;;;;;;10.15;100.00;99748.00;5095739;28;20031;-61
2023/10/31 04:01:33;;;;;;;34.50;20.77;;;;;;;10.11;100.00;99741.22;5112743;28;19927;-61
2023/10/31 04:03:59;;;;;;;35.70;22.42;;;;;;;10.09;100.00;99758.25;5112872;28;20027;-61
2023/10/31 04:06:24;;;;;;;34.55;20.33;;;;;;;10.09;100.00;99748.50;5110991;28;20479;-62
2023/10/31 04:08:49;;;;;;;31.20;19.00;;;;;;;10.12;100.00;99745.59;5113121;28;20016;-61
2023/10/31 04:11:17;;;;;;;36.38;20.88;;;;;;;10.10;100.00;99754.66;5112166;28;20023;-61
2023/10/31 04:13:43;;;;;;;37.08;20.75;;;;;;;10.10;100.00;99755.47;5093808;28;20466;-61
2023/10/31 04:16:10;;;;;;;34.58;19.73;;;;;;;10.12;100.00;99758.03;5111961;28;20157;-62
2023/10/31 04:18:36;;;;;;;41.80;37.53;;;;;;;10.00;100.00;99757.19;5113124;28;20084;-62
2023/10/31 04:21:02;;;;;;;43.97;39.65;;;;;;;9.97;100.00;99752.94;5112377;28;20509;-61
2023/10/31 04:23:27;;;;;;;30.50;18.77;;;;;;;10.07;100.00;99768.16;5112320;28;20023;-61
2023/10/31 04:25:52;;;;;;;18.33;14.25;;;;;;;10.11;100.00;99767.78;5111764;28;20016;-61
2023/10/31 04:28:18;;;;;;;35.88;20.52;;;;;;;10.05;100.00;99772.75;5094063;28;20260;-61
2023/10/31 04:30:44;;;;;;;28.25;18.73;;;;;;;9.99;100.00;99766.09;5113266;28;20026;-61
2023/10/31 04:33:09;;;;;;;29.48;18.13;;;;;;;10.05;100.00;99778.91;5112576;28;20020;-62
2023/10/31 04:35:35;;;;;;;30.05;18.35;;;;;;;10.03;100.00;99780.84;5111584;28;20031;-62
2023/10/31 04:38:00;;;;;;;28.10;18.60;;;;;;;9.98;100.00;99773.22;5094294;28;20029;-61
2023/10/31 04:40:26;;;;;;;38.85;35.15;;;;;;;9.99;100.00;99788.19;5090291;28;20051;-62
2023/10/31 04:42:51;;;;;;;26.13;17.33;;;;;;;10.06;100.00;99791.25;5112616;28;20019;-61
2023/10/31 04:45:16;;;;;;;27.67;16.70;;;;;;;10.06;100.00;99804.53;5111801;28;20026;-61
2023/10/31 04:47:42;;;;;;;37.40;33.70;;;;;;;9.94;100.00;99794.81;5094913;28;20040;-61
2023/10/31 04:50:08;;;;;;;40.28;33.05;;;;;;;9.93;100.00;99809.91;5094260;28;20039;-61
2023/10/31 04:52:33;;;;;;;24.85;17.10;;;;;;;10.06;100.00;99812.50;5112690;28;20031;-61
2023/10/31 04:54:59;;;;;;;22.17;15.38;;;;;;;10.05;100.00;99813.44;5092588;28;20024;-61
2023/10/31 04:57:24;;;;;;;21.30;14.88;;;;;;;10.05;100.00;99816.09;5094057;27;20032;-61
2023/10/31 04:59:49;;;;;;;24.10;15.60;;;;;;;10.08;100.00;99820.31;5112239;28;20051;-61
2023/10/31 05:02:15;;;;;;;24.08;16.55;;;;;;;10.06;100.00;99827.56;5112923;28;20024;-62
2023/10/31 05:04:40;;;;;;;22.95;16.35;;;;;;;10.06;100.00;99824.91;5112480;28;20122;-61
2023/10/31 05:07:06;;;;;;;22.73;16.42;;;;;;;10.05;100.00;99824.06;5112241;28;20031;-61
2023/10/31 05:09:31;;;;;;;27.15;17.00;;;;;;;10.04;100.00;99832.16;5112987;28;20084;-61
2023/10/31 05:11:57;;;;;;;29.58;16.80;;;;;;;10.05;100.00;99824.06;5093572;28;20817;-61
2023/10/31 05:14:22;;;;;;;28.45;17.73;;;;;;;10.05;100.00;99817.91;5112344;28;20031;-61
2023/10/31 05:16:48;;;;;;;24.23;14.90;;;;;;;10.10;100.00;99823.72;5114556;27;20024;-61
2023/10/31 05:19:13;;;;;;;25.20;16.70;;;;;;;10.05;100.00;99821.41;5112038;28;20535;-61
2023/10/31 05:21:40;;;;;;;27.25;17.30;;;;;;;9.98;100.00;99813.06;5091124;28;20056;-62
2023/10/31 05:24:07;;;;;;;27.02;16.55;;;;;;;9.97;100.00;99814.03;5111777;28;20114;-61
2023/10/31 05:26:32;;;;;;;24.38;16.58;;;;;;;9.99;100.00;99819.22;5111201;28;20058;-62
2023/10/31 05:28:58;;;;;;;23.50;14.88;;;;;;;9.99;100.00;99821.88;5112208;28;20051;-61
2023/10/31 05:31:24;;;;;;;24.17;17.30;;;;;;;9.91;100.00;99809.22;5094190;27;20027;-61
2023/10/31 05:33:53;;;;;;;24.83;18.15;;;;;;;9.94;100.00;99814.28;5110781;28;20114;-62
2023/10/31 05:36:23;;;;;;;22.95;17.00;;;;;;;9.92;100.00;99813.53;5109371;28;20588;-61
2023/10/31 05:38:48;;;;;;;23.08;16.48;;;;;;;9.87;100.00;99806.91;5110048;28;20068;-61
2023/10/31 05:41:15;;;;;;;22.92;16.77;;;;;;;9.94;100.00;99824.03;5109587;28;20035;-61
2023/10/31 05:43:41;;;;;;;23.90;16.33;;;;;;;9.90;100.00;99828.75;5108798;28;20466;-61
2023/10/31 05:46:10;;;;;;;28.20;17.33;;;;;;;9.90;100.00;99830.56;5111043;28;20056;-61
2023/10/31 05:48:36;;;;;;;24.17;16.67;;;;;;;9.89;100.00;99843.00;5112237;28;20031;-61
2023/10/31 05:51:02;;;;;;;23.77;17.25;;;;;;;9.87;100.00;99846.72;5108114;28;20058;-61
2023/10/31 05:53:27;;;;;;;21.15;14.98;;;;;;;9.86;100.00;99845.88;5090694;28;20096;-62
2023/10/31 05:55:53;;;;;;;24.45;16.23;;;;;;;9.84;100.00;99854.94;5108409;28;20027;-61
2023/10/31 05:58:18;;;;;;;31.42;28.52;;;;;;;9.72;100.00;99862.84;5109910;28;20027;-61
2023/10/31 06:00:44;;;;;;;23.15;14.73;;;;;;;9.80;100.00;99869.41;5110580;28;20054;-62
2023/10/31 06:03:09;;;;;;;20.33;14.88;;;;;;;9.77;100.00;99865.19;5111786;28;20037;-62
2023/10/31 06:05:35;;;;;;;19.42;13.98;;;;;;;9.80;100.00;99872.06;5109954;28;20030;-62
2023/10/31 06:08:00;;;;;;;29.48;26.73;;;;;;;9.63;100.00;99873.34;5092284;28;20016;-62
2023/10/31 06:10:26;;;;;;;29.52;27.00;;;;;;;9.62;100.00;99871.63;5109064;28;20019;-62
2023/10/31 06:12:51;;;;;;;19.40;13.50;;;;;;;9.67;100.00;99877.44;5109070;28;20142;-62
2023/10/31 06:15:19;;;;;;;19.83;13.50;;;;;;;9.51;100.00;99854.69;5089232;28;20023;-62
2023/10/31 06:17:44;;;;;;;20.80;14.10;;;;;;;9.61;100.00;99885.88;5090151;28;20027;-62
2023/10/31 06:20:10;;;;;;;20.65;14.25;;;;;;;9.55;100.00;99879.19;5108891;28;20077;-62
2023/10/31 06:22:36;;;;;;;30.25;27.55;;;;;;;9.43;100.00;99883.63;5110672;28;20391;-62
2023/10/31 06:25:02;;;;;;;21.92;15.60;;;;;;;9.54;100.00;99896.09;5110283;28;20028;-62
2023/10/31 06:27:27;;;;;;;20.38;14.05;;;;;;;9.60;100.00;99897.47;5092108;28;20094;-62
2023/10/31 06:29:52;;;;;;;22.15;15.38;;;;;;;9.54;100.00;99893.44;5111358;28;20047;-62
2023/10/31 06:32:18;;;;;;;18.65;14.35;;;;;;;9.54;100.00;99904.06;5092797;28;20038;-62
2023/10/31 06:34:43;;;;;;;31.13;28.25;;;;;;;9.41;100.00;99909.44;5110724;28;20039;-62
2023/10/31 06:37:09;;;;;;;18.70;12.63;;;;;;;9.53;100.00;99905.03;5106948;28;20130;-62
2023/10/31 06:39:36;;;;;;;29.17;15.90;;;;;;;9.58;100.00;99913.47;5086835;28;20506;-62
2023/10/31 06:42:02;;;;;;;14.88;11.15;;;;;;;9.52;100.00;99908.63;5107531;28;20031;-62
2023/10/31 06:44:29;;;;;;;24.50;16.88;;;;;;;9.56;100.00;99910.13;5091384;28;20029;-62
2023/10/31 06:46:57;;;;;;;22.90;15.70;;;;;;;9.56;100.00;99918.06;5111456;28;20566;-62
2023/10/31 06:49:23;;;;;;;19.33;14.50;;;;;;;9.65;100.00;99919.22;5111502;28;20031;-62
2023/10/31 06:51:49;;;;;;;21.90;13.95;;;;;;;9.50;100.00;99897.25;5091629;28;20020;-62
2023/10/31 06:54:14;;;;;;;19.20;12.50;;;;;;;9.63;100.00;99926.44;5108516;28;20747;-61
2023/10/31 06:56:40;;;;;;;21.40;14.73;;;;;;;9.64;100.00;99928.94;5091530;28;20027;-62
2023/10/31 06:59:06;;;;;;;19.77;14.05;;;;;;;9.60;100.00;99926.66;5105654;28;20158;-62
2023/10/31 07:01:31;;;;;;;22.10;14.35;;;;;;;9.60;100.00;99924.84;5109358;28;20038;-62
2023/10/31 07:03:59;;;;;;;27.75;25.50;;;;;;;9.57;100.00;99924.22;5091136;28;20085;-62
2023/10/31 07:06:25;;;;;;;18.30;13.38;;;;;;;9.62;100.00;99935.34;5108856;28;20523;-62
2023/10/31 07:08:50;;;;;;;25.48;23.27;;;;;;;9.52;100.00;99928.06;5110059;28;20028;-62
2023/10/31 07:11:16;;;;;;;17.85;13.55;;;;;;;9.64;100.00;99936.06;5105080;28;20113;-62
2023/10/31 07:13:41;;;;;;;25.92;23.73;;;;;;;9.55;100.00;99940.25;5106076;28;20016;-63
2023/10/31 07:16:07;;;;;;;17.75;12.57;;;;;;;9.53;100.00;99924.47;5089243;28;20059;-61
2023/10/31 07:18:32;;;;;;;26.60;23.85;;;;;;;9.60;100.00;99943.44;5105103;28;20023;-62
2023/10/31 07:20:57;;;;;;;19.38;11.52;;;;;;;9.65;100.00;99945.75;5108517;28;20023;-62
2023/10/31 07:23:23;;;;;;;17.88;11.23;;;;;;;9.67;100.00;99949.97;5110266;28;20046;-61
2023/10/31 07:25:48;;;;;;;22.60;20.70;;;;;;;9.57;100.00;99950.78;5091258;28;20107;-62
2023/10/31 07:28:14;;;;;;;16.33;11.85;;;;;;;9.68;100.00;99962.31;5109660;28;20024;-61
2023/10/31 07:30:39;;;;;;;14.90;10.52;;;;;;;9.69;100.00;99958.69;5110122;28;20511;-62
2023/10/31 07:33:05;;;;;;;14.15;11.20;;;;;;;9.73;100.00;99968.09;5089590;28;20020;-62
2023/10/31 07:35:32;;;;;;;17.83;12.57;;;;;;;9.75;100.00;99968.84;5087956;28;20475;-62
2023/10/31 07:38:00;;;;;;;15.52;11.63;;;;;;;9.76;100.00;99962.59;5107387;28;20023;-62
2023/10/31 07:40:26;;;;;;;19.40;11.45;;;;;;;9.80;100.00;99960.53;5106759;28;20386;-62
2023/10/31 07:42:51;;;;;;;16.88;12.40;;;;;;;9.80;100.00;99962.34;5106588;28;20068;-61
2023/10/31 07:45:16;;;;;;;16.20;11.32;;;;;;;9.77;100.00;99960.78;5108025;28;20028;-63
2023/10/31 07:47:44;;;;;;;16.90;11.95;;;;;;;9.75;100.00;99966.19;5107391;28;20047;-62
2023/10/31 07:50:10;;;;;;;15.30;11.27;;;;;;;9.80;100.00;99965.84;5107688;28;20040;-62
2023/10/31 07:52:35;;;;;;;23.95;22.05;;;;;;;9.71;100.00;99956.75;5092972;28;20159;-62
2023/10/31 07:55:00;;;;;;;14.75;12.80;;;;;;;9.81;100.00;99962.22;5110271;28;20069;-62
2023/10/31 07:57:26;;;;;;;25.92;23.42;;;;;;;9.75;100.00;99973.31;5109296;28;20028;-62
2023/10/31 07:59:51;;;;;;;19.77;13.48;;;;;;;9.84;100.00;99964.66;5091578;28;20451;-61
2023/10/31 08:02:16;;;;;;;18.73;13.77;;;;;;;9.82;100.00;99966.56;5110047;28;20022;-62
2023/10/31 08:04:42;;;;;;;20.73;14.52;;;;;;;9.83;100.00;99970.09;5093935;28;20027;-62
2023/10/31 08:07:09;;;;;;;24.20;15.55;;;;;;;9.83;100.00;99964.78;5113251;28;20073;-62
2023/10/31 08:09:35;;;;;;;23.80;15.48;;;;;;;9.94;100.00;99978.97;5114740;28;20537;-62
2023/10/31 08:12:00;;;;;;;24.92;18.13;;;;;;;9.90;100.00;99981.94;5114992;28;20099;-62
2023/10/31 08:14:26;;;;;;;25.00;17.48;;;;;;;9.98;100.00;99995.50;5095697;28;20023;-62
2023/10/31 08:16:51;;;;;;;28.50;18.42;;;;;;;9.98;100.00;99984.88;5110333;28;20024;-62
2023/10/31 08:19:16;;;;;;;30.65;18.95;;;;;;;9.95;100.00;99985.97;5092726;28;20023;-62
2023/10/31 08:21:42;;;;;;;21.02;16.30;;;;;;;9.97;100.00;99996.47;5105731;28;20023;-62
2023/10/31 08:24:08;;;;;;;36.47;33.17;;;;;;;9.85;100.00;99992.06;5111207;28;20031;-62
2023/10/31 08:26:34;;;;;;;24.95;17.08;;;;;;;9.94;100.00;99988.72;5110503;28;20020;-62
2023/10/31 08:28:59;;;;;;;27.63;18.77;;;;;;;9.94;100.00;99991.38;5112462;28;20021;-61
2023/10/31 08:31:25;;;;;;;24.48;16.95;;;;;;;9.92;100.00;99988.84;5091969;28;20038;-62
2023/10/31 08:33:50;;;;;;;27.00;16.15;;;;;;;10.00;100.00;99994.44;5109833;28;20023;-62
2023/10/31 08:36:16;;;;;;;23.90;16.23;;;;;;;9.96;100.00;99986.81;5093409;28;20031;-62
2023/10/31 08:38:41;;;;;;;36.97;33.25;;;;;;;9.83;100.00;99978.06;5094684;28;20086;-62
2023/10/31 08:41:07;;;;;;;28.33;16.13;;;;;;;10.01;100.00;99992.63;5111533;28;20508;-62
2023/10/31 08:43:34;;;;;;;26.17;16.67;;;;;;;10.06;100.00;100001.13;5110166;28;20082;-62
2023/10/31 08:46:00;;;;;;;35.97;30.45;;;;;;;9.99;100.00;100003.34;5092534;28;20024;-62
2023/10/31 08:48:26;;;;;;;26.33;16.73;;;;;;;10.06;100.00;100010.88;5091025;28;20019;-62
2023/10/31 08:50:51;;;;;;;26.73;14.13;;;;;;;10.10;100.00;100015.84;5091794;28;20462;-62
2023/10/31 08:53:19;;;;;;;32.63;29.20;;;;;;;10.10;100.00;100026.47;5112786;28;20026;-61
2023/10/31 08:55:44;;;;;;;32.83;29.70;;;;;;;10.20;100.00;100029.28;5113099;28;20051;-62
2023/10/31 08:58:14;;;;;;;22.83;13.45;;;;;;;10.29;100.00;100038.41;5089816;28;20051;-62
2023/10/31 09:00:42;;;;;;;23.08;14.10;;;;;;;10.32;100.00;100041.69;5111470;28;20151;-62
2023/10/31 09:03:08;;;;;;;24.15;14.57;;;;;;;10.31;100.00;100044.47;5091222;28;20020;-62
2023/10/31 09:05:33;;;;;;;30.83;27.75;;;;;;;10.33;100.00;100039.91;5084673;28;20524;-62
2023/10/31 09:07:59;;;;;;;30.58;27.70;;;;;;;10.34;100.00;100046.91;5094448;28;20031;-61
2023/10/31 09:10:24;;;;;;;31.02;27.83;;;;;;;10.31;100.00;100055.94;5109471;28;20447;-62
2023/10/31 09:12:52;;;;;;;22.42;13.75;;;;;;;10.37;100.00;100059.97;5091242;28;20024;-61
2023/10/31 09:15:18;;;;;;;30.90;27.98;;;;;;;10.25;100.00;100053.72;5107799;28;20459;-62
2023/10/31 09:17:44;;;;;;;26.95;15.07;;;;;;;10.35;100.00;100059.22;5112159;28;20047;-62
2023/10/31 09:20:11;;;;;;;25.50;15.57;;;;;;;10.40;100.00;100070.38;5109161;28;20058;-62
2023/10/31 09:22:37;;;;;;;23.77;14.35;;;;;;;10.48;100.00;100077.78;5109126;28;20473;-62
2023/10/31 09:25:02;;;;;;;27.33;16.02;;;;;;;10.59;100.00;100080.44;5112335;28;20027;-62
2023/10/31 09:27:30;;;;;;;22.35;14.50;;;;;;;10.76;100.00;100081.84;5093874;28;20028;-62
2023/10/31 09:45:32;;;;;;;24.48;22.33;;;;;;;10.38;100.00;100113.03;5024509;27;20413;-60
2023/10/31 09:48:02;;;;;;;25.30;23.20;;;;;;;10.42;100.00;100118.94;5024518;28;20170;-60
2023/10/31 09:50:29;;;;;;;26.00;23.70;;;;;;;10.53;100.00;100112.81;5021871;28;20033;-60
2023/10/31 09:52:56;;;;;;;18.05;12.85;;;;;;;10.66;100.00;100117.13;5022199;28;20041;-61
2023/10/31 09:55:24;;;;;;;16.55;12.35;;;;;;;10.73;100.00;100122.81;5004651;28;20045;-63
2023/10/31 09:57:50;;;;;;;17.88;12.73;;;;;;;10.72;100.00;100122.94;5023438;28;20086;-62
2023/10/31 10:00:15;;;;;;;25.73;23.48;;;;;;;10.76;100.00;100116.41;5023868;28;20029;-62
2023/10/31 10:02:41;;;;;;;19.98;12.85;;;;;;;10.98;100.00;100118.31;5093130;28;20078;-62
2023/10/31 10:05:09;;;;;;;21.13;13.70;;;;;;;11.08;100.00;100122.78;5017365;28;20026;-63
2023/10/31 10:07:37;;;;;;;15.45;11.27;;;;;;;11.08;100.00;100122.78;5006324;28;20389;-62
2023/10/31 10:10:03;;;;;;;17.65;11.40;;;;;;;10.97;100.00;100128.09;5005230;28;20100;-62
2023/10/31 10:12:31;;;;;;;21.17;12.35;;;;;;;10.98;100.00;100143.09;5023503;28;20034;-62
2023/10/31 10:14:57;;;;;;;19.35;13.40;;;;;;;11.01;100.00;100142.84;5023278;28;20568;-62
2023/10/31 10:17:24;;;;;;;18.15;12.23;;;;;;;10.96;100.00;100153.00;5021892;28;20026;-62
2023/10/31 10:20:07;;;;;;;14.38;10.48;;;;;;;10.90;100.00;100142.81;5004814;28;20037;-63
2023/10/31 10:22:36;;;;;;;18.20;11.23;;;;;;;10.93;100.00;100137.25;5026690;28;20022;-62
2023/10/31 10:25:08;;;;;;;17.00;12.20;;;;;;;10.97;100.00;100151.19;5018850;28;20026;-63
2023/10/31 10:27:33;;;;;;;15.63;11.32;;;;;;;10.99;100.00;100158.09;5061633;28;20106;-62
2023/10/31 10:29:58;;;;;;;20.23;18.33;;;;;;;10.87;100.00;100153.69;5006156;28;20033;-62
2023/10/31 10:32:24;;;;;;;15.73;11.70;;;;;;;10.95;100.00;100159.28;5024177;28;20030;-62
2023/10/31 10:34:49;;;;;;;21.30;19.20;;;;;;;10.82;100.00;100162.00;5023902;28;20052;-62
2023/10/31 10:37:18;;;;;;;14.13;10.68;;;;;;;10.98;100.00;100164.38;5023528;28;20030;-63
2023/10/31 10:39:48;;;;;;;19.73;10.95;;;;;;;10.94;100.00;100170.88;5023377;28;20452;-62
2023/10/31 10:42:17;;;;;;;16.05;11.50;;;;;;;10.95;100.00;100182.41;5023434;28;20033;-62
2023/10/31 10:44:44;;;;;;;19.70;12.65;;;;;;;10.92;100.00;100178.16;5019455;28;20545;-62
2023/10/31 10:47:12;;;;;;;20.48;12.52;;;;;;;11.02;100.00;100183.63;5009009;28;20063;-62
2023/10/31 10:49:42;;;;;;;15.05;11.60;;;;;;;11.02;100.00;100191.59;5009496;28;20421;-62
2023/10/31 10:52:35;;;;;;;13.02;10.63;;;;;;;11.02;100.00;100187.13;5009627;28;20137;-62
2023/10/31 10:55:11;;;;;;;18.23;11.50;;;;;;;11.03;100.00;100191.50;5009607;28;20041;-62
2023/10/31 10:57:40;;;;;;;21.40;19.45;;;;;;;10.92;100.00;100196.78;5010044;28;20021;-63
2023/10/31 11:00:12;;;;;;;14.10;11.60;;;;;;;10.96;100.00;100195.56;5009516;28;20086;-62
2023/10/31 11:02:40;;;;;;;16.70;11.50;;;;;;;10.96;100.00;100190.25;5008723;28;20292;-63
2023/10/31 11:05:09;;;;;;;16.85;11.43;;;;;;;10.86;100.00;100183.94;4997625;28;20030;-62
2023/10/31 11:07:40;;;;;;;14.18;10.18;;;;;;;10.91;100.00;100187.94;5010334;28;20522;-62
2023/10/31 11:10:06;;;;;;;17.23;11.88;;;;;;;10.90;100.00;100185.38;5010520;28;20026;-62
2023/10/31 11:12:32;;;;;;;20.80;12.40;;;;;;;11.01;100.00;100190.75;4992805;28;20022;-62
2023/10/31 11:15:00;;;;;;;20.92;12.88;;;;;;;10.99;100.00;100191.84;5010601;28;20388;-62
2023/10/31 11:17:32;;;;;;;17.70;11.90;;;;;;;10.94;100.00;100197.47;4992544;28;20033;-62
2023/10/31 11:20:00;;;;;;;21.83;13.10;;;;;;;10.99;100.00;100191.84;5010419;28;20542;-62
2023/10/31 11:22:37;;;;;;;16.80;11.70;;;;;;;11.08;100.00;100202.63;5010202;28;20025;-62